createdAt,value
2023-04-16T00:01:09.389Z,7.57
2023-04-16T00:03:37.538Z,8.45
2023-04-16T00:06:05.975Z,8.48
2023-04-16T00:08:35.701Z,8.95
2023-04-16T00:11:05.480Z,8.85
2023-04-16T00:13:33.586Z,9.82
2023-04-16T00:16:01.706Z,8.13
2023-04-16T00:18:29.597Z,8.93
2023-04-16T00:20:57.520Z,10.15
2023-04-16T00:23:25.417Z,10.07
2023-04-16T00:25:53.919Z,10.73
2023-04-16T00:28:21.932Z,11.23
2023-04-16T00:30:49.903Z,10.57
2023-04-16T00:33:18.213Z,9.90
2023-04-16T00:35:47.284Z,9.60
2023-04-16T00:38:15.979Z,10.05
2023-04-16T00:40:44.070Z,11.00
2023-04-16T00:43:12.073Z,9.60
2023-04-16T00:45:40.240Z,9.90
2023-04-16T00:48:08.294Z,11.02
2023-04-16T00:50:36.288Z,10.48
2023-04-16T00:53:04.742Z,9.68
2023-04-16T00:55:32.676Z,11.70
2023-04-16T00:58:01.092Z,11.88
2023-04-16T01:00:29.263Z,11.80
2023-04-16T01:03:07.332Z,11.20
2023-04-16T01:05:37.091Z,11.52
2023-04-16T01:08:05.143Z,11.35
2023-04-16T01:10:33.201Z,11.70
2023-04-16T01:13:01.219Z,11.25
2023-04-16T01:15:29.510Z,12.35
2023-04-16T01:17:57.543Z,12.63
2023-04-16T01:20:25.592Z,11.95
2023-04-16T01:22:53.588Z,11.68
2023-04-16T01:25:21.812Z,12.60
2023-04-16T01:27:54.918Z,13.15
2023-04-16T01:30:23.107Z,11.68
2023-04-16T01:33:03.053Z,12.65
2023-04-16T01:35:31.206Z,13.15
2023-04-16T01:38:02.102Z,13.25
2023-04-16T01:40:30.679Z,12.20
2023-04-16T01:42:58.650Z,14.27
2023-04-16T01:45:26.642Z,13.00
2023-04-16T01:47:54.586Z,12.30
2023-04-16T01:50:23.414Z,11.35
2023-04-16T01:52:51.315Z,13.10
2023-04-16T01:55:19.291Z,14.73
2023-04-16T01:57:47.476Z,14.52
2023-04-16T02:00:15.927Z,13.55
2023-04-16T02:02:47.416Z,14.55
2023-04-16T02:05:21.596Z,13.75
2023-04-16T02:07:49.661Z,14.40
2023-04-16T02:10:17.742Z,15.13
2023-04-16T02:12:46.683Z,12.48
2023-04-16T02:15:16.354Z,13.38
2023-04-16T02:17:46.450Z,13.10
2023-04-16T02:20:14.572Z,16.05
2023-04-16T02:22:49.721Z,15.93
2023-04-16T02:25:20.623Z,15.18
2023-04-16T02:27:48.829Z,14.98
2023-04-16T02:30:27.289Z,14.80
2023-04-16T02:32:55.904Z,12.18
2023-04-16T02:35:24.740Z,15.63
2023-04-16T02:37:52.968Z,16.20
2023-04-16T02:40:21.086Z,14.57
2023-04-16T02:42:49.965Z,13.75
2023-04-16T02:45:17.919Z,16.27
2023-04-16T02:47:47.474Z,16.70
2023-04-16T02:50:15.668Z,14.30
2023-04-16T02:52:43.602Z,16.52
2023-04-16T02:55:12.037Z,16.88
2023-04-16T02:57:39.940Z,15.02
2023-04-16T03:00:08.723Z,15.75
2023-04-16T03:02:36.864Z,13.52
2023-04-16T03:05:05.147Z,15.70
2023-04-16T03:07:33.079Z,17.83
2023-04-16T03:10:01.248Z,17.40
2023-04-16T03:12:29.053Z,14.57
2023-04-16T03:14:56.989Z,17.42
2023-04-16T03:17:24.962Z,17.25
2023-04-16T03:19:52.961Z,17.70
2023-04-16T03:22:23.513Z,17.05
2023-04-16T03:24:51.583Z,16.25
2023-04-16T03:27:19.456Z,16.50
2023-04-16T03:29:47.838Z,18.75
2023-04-16T03:32:15.871Z,18.70
2023-04-16T03:34:43.818Z,15.50
2023-04-16T03:37:14.806Z,18.58
2023-04-16T03:39:42.686Z,18.27
2023-04-16T03:42:12.187Z,18.38
2023-04-16T03:44:41.344Z,18.65
2023-04-16T03:47:10.500Z,18.92
2023-04-16T03:49:39.084Z,18.95
2023-04-16T03:52:07.656Z,18.05
2023-04-16T03:54:35.715Z,18.67
2023-04-16T03:57:15.350Z,18.30
2023-04-16T03:59:43.661Z,20.02
2023-04-16T04:02:11.684Z,18.88
2023-04-16T04:04:39.649Z,18.95
2023-04-16T04:07:07.658Z,16.20
2023-04-16T04:09:35.766Z,20.08
2023-04-16T04:12:04.670Z,20.52
2023-04-16T04:14:39.690Z,17.58
2023-04-16T04:17:09.467Z,17.00
2023-04-16T04:19:40.286Z,18.05
2023-04-16T04:22:11.025Z,16.42
2023-04-16T04:24:39.512Z,19.17
2023-04-16T04:27:07.553Z,18.50
2023-04-16T04:29:35.566Z,20.10
2023-04-16T04:32:03.883Z,19.65
2023-04-16T04:34:32.087Z,19.05
2023-04-16T04:37:00.723Z,18.60
2023-04-16T04:39:29.551Z,12.30
2023-04-16T04:41:58.335Z,17.33
2023-04-16T04:44:26.545Z,13.77
2023-04-16T04:46:54.688Z,16.80
2023-04-16T04:49:25.091Z,12.93
2023-04-16T04:52:13.844Z,17.42
2023-04-16T04:54:42.219Z,17.17
2023-04-16T04:57:10.128Z,13.00
2023-04-16T04:59:38.380Z,14.90
2023-04-16T05:02:06.462Z,17.80
2023-04-16T05:04:34.428Z,17.80
2023-04-16T05:07:02.801Z,14.45
2023-04-16T05:09:30.964Z,15.55
2023-04-16T05:11:59.009Z,17.38
2023-04-16T05:14:29.913Z,13.68
2023-04-16T05:16:57.974Z,16.98
2023-04-16T05:19:26.182Z,18.30
2023-04-16T05:21:55.204Z,19.05
2023-04-16T05:24:23.420Z,18.33
2023-04-16T05:26:51.377Z,20.48
2023-04-16T05:29:19.481Z,17.75
2023-04-16T05:31:47.478Z,19.52
2023-04-16T05:34:15.570Z,16.83
2023-04-16T05:36:43.733Z,15.40
2023-04-16T05:39:11.910Z,17.17
2023-04-16T05:41:39.871Z,15.57
2023-04-16T05:44:07.791Z,15.05
2023-04-16T05:46:35.853Z,15.98
2023-04-16T05:49:03.875Z,19.20
2023-04-16T05:51:32.342Z,18.48
2023-04-16T05:54:00.364Z,15.13
2023-04-16T05:56:28.294Z,16.33
2023-04-16T05:58:56.109Z,18.75
2023-04-16T06:01:26.252Z,16.13
2023-04-16T06:03:54.789Z,16.48
2023-04-16T06:06:22.888Z,14.30
2023-04-16T06:08:50.956Z,16.75
2023-04-16T06:11:18.888Z,18.60
2023-04-16T06:13:47.249Z,17.17
2023-04-16T06:16:15.882Z,16.92
2023-04-16T06:18:49.808Z,18.25
2023-04-16T06:21:17.950Z,15.38
2023-04-16T06:23:45.857Z,17.15
2023-04-16T06:26:13.873Z,17.10
2023-04-16T06:28:41.767Z,16.23
2023-04-16T06:31:09.819Z,19.33
2023-04-16T06:33:39.604Z,14.50
2023-04-16T06:36:07.964Z,15.85
2023-04-16T06:38:37.048Z,17.45
2023-04-16T06:41:06.007Z,17.35
2023-04-16T06:43:34.332Z,20.00
2023-04-16T06:46:02.360Z,16.05
2023-04-16T06:48:33.518Z,19.45
2023-04-16T06:51:04.368Z,19.02
2023-04-16T06:53:33.116Z,18.98
2023-04-16T06:56:03.767Z,19.52
2023-04-16T06:58:34.299Z,20.65
2023-04-16T07:01:10.476Z,17.27
2023-04-16T07:03:58.032Z,19.35
2023-04-16T07:06:28.322Z,18.52
2023-04-16T07:08:56.298Z,18.40
2023-04-16T07:11:27.762Z,16.73
2023-04-16T07:13:55.997Z,15.70
2023-04-16T07:16:30.084Z,19.13
2023-04-16T07:19:00.820Z,22.13
2023-04-16T07:21:30.742Z,19.98
2023-04-16T07:23:58.782Z,19.42
2023-04-16T07:26:26.742Z,18.20
2023-04-16T07:28:55.155Z,20.17
2023-04-16T07:31:23.238Z,15.60
2023-04-16T07:33:51.757Z,22.23
2023-04-16T07:36:19.922Z,20.48
2023-04-16T07:38:47.944Z,18.23
2023-04-16T07:41:16.087Z,15.52
2023-04-16T07:43:43.918Z,19.85
2023-04-16T07:46:11.859Z,20.33
2023-04-16T07:48:42.639Z,20.50
2023-04-16T07:51:10.942Z,21.50
2023-04-16T07:53:38.809Z,17.77
2023-04-16T07:56:07.533Z,19.73
2023-04-16T07:58:35.760Z,20.02
2023-04-16T08:01:03.813Z,15.50
2023-04-16T08:03:31.820Z,20.70
2023-04-16T08:05:59.991Z,20.35
2023-04-16T08:08:27.888Z,16.98
2023-04-16T08:10:56.180Z,22.83
2023-04-16T08:13:24.428Z,18.40
2023-04-16T08:15:52.441Z,20.58
2023-04-16T08:18:21.744Z,19.35
2023-04-16T08:20:50.833Z,20.00
2023-04-16T08:23:19.013Z,19.98
2023-04-16T08:25:47.796Z,21.13
2023-04-16T08:28:18.528Z,14.75
2023-04-16T08:30:50.408Z,20.02
2023-04-16T08:33:18.616Z,20.13
2023-04-16T08:35:49.560Z,19.05
2023-04-16T08:38:17.878Z,17.70
2023-04-16T08:40:51.719Z,19.00
2023-04-16T08:43:22.026Z,19.85
2023-04-16T08:45:52.689Z,19.95
2023-04-16T08:48:22.312Z,19.20
2023-04-16T08:50:55.610Z,16.25
2023-04-16T08:53:47.623Z,19.20
2023-04-16T08:56:18.835Z,16.95
2023-04-16T08:58:48.810Z,15.95
2023-04-16T09:01:18.968Z,19.25
2023-04-16T09:03:53.759Z,16.80
2023-04-16T09:06:22.470Z,16.95
2023-04-16T09:08:51.328Z,18.85
2023-04-16T09:11:22.017Z,18.27
2023-04-16T09:13:50.628Z,18.25
2023-04-16T09:16:21.599Z,17.08
2023-04-16T09:18:49.814Z,16.60
2023-04-16T09:21:24.212Z,18.17
2023-04-16T09:23:54.563Z,18.45
2023-04-16T09:26:24.140Z,16.92
2023-04-16T09:28:52.405Z,16.23
2023-04-16T09:31:22.553Z,16.85
2023-04-16T09:34:13.045Z,16.77
2023-04-16T09:36:41.433Z,16.27
2023-04-16T09:39:22.105Z,14.82
2023-04-16T09:41:54.929Z,16.17
2023-04-16T09:44:42.866Z,15.07
2023-04-16T09:47:13.693Z,16.08
2023-04-16T09:49:45.869Z,15.45
2023-04-16T09:52:22.653Z,14.52
2023-04-16T09:54:55.196Z,14.85
2023-04-16T10:03:21.558Z,12.25
2023-04-16T10:06:20.763Z,14.30
2023-04-16T10:08:56.054Z,14.75
2023-04-16T10:11:27.619Z,15.60
2023-04-16T10:14:12.865Z,14.38
2023-04-16T10:16:42.156Z,12.88
2023-04-16T10:19:16.048Z,15.65
2023-04-16T10:22:00.401Z,13.65
2023-04-16T10:24:34.687Z,13.85
2023-04-16T10:27:12.637Z,14.38
2023-04-16T10:29:47.412Z,14.10
2023-04-16T10:32:35.974Z,14.77
2023-04-16T10:35:57.940Z,12.23
2023-04-16T10:38:58.347Z,14.52
2023-04-16T10:41:30.412Z,14.55
2023-04-16T10:44:09.963Z,13.15
2023-04-16T10:46:44.214Z,13.02
2023-04-16T10:49:23.249Z,13.77
2023-04-16T10:51:58.795Z,11.88
2023-04-16T10:54:31.441Z,13.82
2023-04-16T10:59:55.405Z,13.38
2023-04-16T11:02:29.741Z,13.40
2023-04-16T11:04:59.069Z,13.00
2023-04-16T11:07:58.145Z,12.40
2023-04-16T11:10:51.178Z,12.57
2023-04-16T11:13:38.625Z,12.05
2023-04-16T11:16:07.691Z,13.13
2023-04-16T11:19:24.260Z,14.10
2023-04-16T11:22:00.676Z,13.23
2023-04-16T11:31:05.209Z,13.20
2023-04-16T11:33:39.975Z,12.45
2023-04-16T11:36:11.498Z,12.13
2023-04-16T11:38:54.218Z,13.75
2023-04-16T11:44:02.254Z,11.68
2023-04-16T11:46:44.794Z,12.15
2023-04-16T11:49:37.446Z,12.65
2023-04-16T11:52:13.849Z,12.25
2023-04-16T11:54:56.396Z,11.57
2023-04-16T11:57:39.088Z,12.88
2023-04-16T12:03:09.279Z,12.45
2023-04-16T12:05:51.947Z,11.90
2023-04-16T12:08:40.146Z,11.52
2023-04-16T12:14:18.395Z,11.80
2023-04-16T12:19:19.400Z,11.38
2023-04-16T12:22:05.608Z,12.98
2023-04-16T12:24:37.990Z,12.43
2023-04-16T12:27:08.066Z,12.00
2023-04-16T12:29:39.875Z,8.77
2023-04-16T12:32:25.069Z,12.18
2023-04-16T12:37:45.861Z,12.32
2023-04-16T12:40:18.980Z,11.65
2023-04-16T12:43:04.733Z,10.85
2023-04-16T12:45:40.202Z,10.57
2023-04-16T12:48:09.928Z,12.80
2023-04-16T12:50:49.429Z,11.80
2023-04-16T12:53:24.998Z,12.18
2023-04-16T12:56:06.991Z,12.82
2023-04-16T12:58:38.915Z,10.00
2023-04-16T13:01:07.370Z,12.32
2023-04-16T13:03:38.820Z,12.40
2023-04-16T13:06:07.614Z,12.10
2023-04-16T13:08:37.435Z,12.45
2023-04-16T13:11:08.846Z,10.90
2023-04-16T13:13:37.320Z,10.95
2023-04-16T13:16:06.843Z,12.30
2023-04-16T13:18:36.484Z,11.60
2023-04-16T13:21:08.688Z,11.70
2023-04-16T13:23:39.412Z,11.90
2023-04-16T13:26:07.593Z,8.48
2023-04-16T13:28:35.950Z,11.63
2023-04-16T13:31:15.706Z,10.10
2023-04-16T13:33:50.988Z,11.15
2023-04-16T13:36:27.051Z,11.73
2023-04-16T13:39:01.552Z,11.88
2023-04-16T13:41:29.886Z,12.02
2023-04-16T13:44:00.350Z,11.68
2023-04-16T13:46:43.740Z,12.20
2023-04-16T13:49:12.380Z,10.13
2023-04-16T13:51:46.765Z,11.20
2023-04-16T13:54:17.409Z,10.45
2023-04-16T13:56:56.003Z,10.75
2023-04-16T13:59:24.573Z,11.40
2023-04-16T14:02:00.336Z,10.88
2023-04-16T14:04:28.655Z,10.55
2023-04-16T14:06:57.568Z,11.80
2023-04-16T14:09:25.745Z,9.93
2023-04-16T14:12:01.650Z,10.25
2023-04-16T14:14:53.193Z,11.18
2023-04-16T14:17:23.873Z,8.60
2023-04-16T14:20:00.596Z,10.38
2023-04-16T14:22:28.719Z,11.35
2023-04-16T14:24:56.676Z,10.48
2023-04-16T14:27:24.673Z,11.38
2023-04-16T14:29:52.642Z,10.75
2023-04-16T14:32:28.660Z,10.43
2023-04-16T14:34:59.628Z,10.93
2023-04-16T14:37:32.305Z,11.27
2023-04-16T14:40:03.282Z,10.68
2023-04-16T14:42:33.792Z,10.45
2023-04-16T14:45:06.730Z,10.85
2023-04-16T14:47:35.767Z,10.80
2023-04-16T14:50:06.653Z,10.68
2023-04-16T14:52:38.281Z,8.63
2023-04-16T14:55:17.414Z,10.82
2023-04-16T14:57:46.430Z,11.70
2023-04-16T15:00:18.840Z,10.68
2023-04-16T15:02:48.458Z,11.00
2023-04-16T15:05:16.831Z,10.88
2023-04-16T15:07:48.830Z,11.68
2023-04-16T15:10:20.197Z,12.23
2023-04-16T15:12:57.963Z,10.98
2023-04-16T15:15:26.238Z,10.85
2023-04-16T15:17:54.431Z,10.55
2023-04-16T15:20:22.515Z,10.35
2023-04-16T15:22:51.085Z,10.85
2023-04-16T15:25:29.164Z,11.52
2023-04-16T15:27:57.992Z,10.75
2023-04-16T15:30:26.789Z,11.30
2023-04-16T15:32:55.845Z,10.73
2023-04-16T15:35:24.626Z,10.57
2023-04-16T15:37:53.129Z,12.05
2023-04-16T15:40:25.707Z,10.95
2023-04-16T15:42:56.524Z,11.25
2023-04-16T15:45:26.775Z,11.80
2023-04-16T15:47:58.357Z,11.32
2023-04-16T15:50:28.954Z,10.48
2023-04-16T15:53:05.259Z,10.77
2023-04-16T15:56:19.474Z,11.57
2023-04-16T15:58:53.547Z,9.23
2023-04-16T16:01:28.369Z,11.88
2023-04-16T16:04:03.092Z,11.57
2023-04-16T16:06:38.022Z,11.63
2023-04-16T16:10:08.713Z,10.77
2023-04-16T16:15:14.226Z,10.35
2023-04-16T16:17:48.140Z,11.48
2023-04-16T16:20:19.935Z,13.30
2023-04-16T16:22:56.203Z,10.02
2023-04-16T16:25:30.180Z,11.85
2023-04-16T16:28:06.168Z,12.80
2023-04-16T16:30:51.143Z,12.57
2023-04-16T16:33:19.484Z,12.80
2023-04-16T16:35:59.769Z,12.50
2023-04-16T16:38:54.599Z,12.40
2023-04-16T16:41:29.374Z,12.48
2023-04-16T16:44:00.865Z,11.65
2023-04-16T16:46:32.538Z,13.18
2023-04-16T16:49:01.094Z,12.55
2023-04-16T16:51:38.467Z,12.70
2023-04-16T16:54:25.807Z,13.45
2023-04-16T16:57:02.596Z,11.90
2023-04-16T16:59:32.786Z,12.70
2023-04-16T17:02:01.423Z,13.10
2023-04-16T17:04:33.331Z,13.75
2023-04-16T17:07:03.026Z,13.00
2023-04-16T17:09:35.746Z,12.85
2023-04-16T17:12:14.150Z,12.68
2023-04-16T17:14:44.677Z,12.65
2023-04-16T17:17:13.184Z,13.45
2023-04-16T17:19:44.612Z,12.77
2023-04-16T17:22:12.964Z,13.77
2023-04-16T17:24:41.364Z,12.98
2023-04-16T17:27:09.861Z,14.15
2023-04-16T17:29:40.731Z,14.23
2023-04-16T17:32:11.747Z,14.30
2023-04-16T17:34:40.055Z,13.13
2023-04-16T17:37:09.967Z,13.50
2023-04-16T17:39:38.509Z,13.52
2023-04-16T17:42:06.783Z,13.15
2023-04-16T17:44:36.330Z,13.50
2023-04-16T17:47:05.165Z,13.20
2023-04-16T17:49:42.782Z,13.32
2023-04-16T17:52:11.162Z,13.75
2023-04-16T17:54:39.651Z,14.02
2023-04-16T17:57:08.038Z,13.60
2023-04-16T17:59:39.492Z,13.52
2023-04-16T18:02:10.316Z,13.85
2023-04-16T18:04:46.889Z,15.07
2023-04-16T18:07:21.362Z,13.68
2023-04-16T18:09:49.951Z,14.73
2023-04-16T18:12:18.704Z,13.90
2023-04-16T18:14:46.831Z,13.48
2023-04-16T18:17:15.832Z,14.10
2023-04-16T18:19:48.113Z,14.32
2023-04-16T18:22:20.162Z,14.48
2023-04-16T18:24:58.053Z,13.00
2023-04-16T18:27:26.722Z,14.63
2023-04-16T18:29:55.371Z,13.93
2023-04-16T18:32:25.001Z,14.38
2023-04-16T18:34:53.847Z,14.23
2023-04-16T18:37:22.026Z,15.07
2023-04-16T18:39:52.822Z,15.68
2023-04-16T18:42:20.935Z,15.95
2023-04-16T18:44:54.042Z,14.45
2023-04-16T18:47:22.257Z,16.10
2023-04-16T18:49:50.536Z,15.70
2023-04-16T18:52:22.149Z,16.70
2023-04-16T18:54:50.184Z,16.60
2023-04-16T18:57:20.623Z,17.23
2023-04-16T18:59:49.037Z,16.70
2023-04-16T19:02:18.333Z,16.17
2023-04-16T19:04:51.830Z,17.70
2023-04-16T19:07:21.480Z,17.42
2023-04-16T19:09:52.857Z,17.42
2023-04-16T19:12:21.709Z,18.58
2023-04-16T19:14:49.936Z,17.75
2023-04-16T19:17:24.627Z,17.23
2023-04-16T19:22:25.319Z,17.33
2023-04-16T19:25:01.732Z,17.50
2023-04-16T19:27:35.750Z,17.25
2023-04-16T19:30:05.623Z,18.55
2023-04-16T19:32:35.623Z,19.00
2023-04-16T19:35:04.948Z,17.15
2023-04-16T19:37:33.334Z,17.45
2023-04-16T19:40:02.311Z,15.38
2023-04-16T19:42:31.374Z,17.30
2023-04-16T19:45:01.671Z,17.33
2023-04-16T19:47:31.124Z,17.58
2023-04-16T19:50:01.067Z,16.88
2023-04-16T19:52:32.234Z,15.63
2023-04-16T19:55:03.370Z,18.00
2023-04-16T19:57:31.626Z,18.55
2023-04-16T19:59:59.672Z,17.55
2023-04-16T20:02:30.976Z,17.27
2023-04-16T20:05:02.328Z,17.42
2023-04-16T20:07:32.916Z,17.60
2023-04-16T20:10:02.605Z,16.88
2023-04-16T20:12:30.766Z,14.23
2023-04-16T20:14:58.738Z,16.50
2023-04-16T20:17:26.951Z,17.33
2023-04-16T20:20:00.888Z,18.33
2023-04-16T20:22:28.898Z,16.60
2023-04-16T20:24:56.830Z,15.60
2023-04-16T20:27:24.756Z,17.42
2023-04-16T20:29:56.502Z,18.80
2023-04-16T20:32:28.163Z,16.45
2023-04-16T20:34:56.666Z,18.05
2023-04-16T20:37:24.767Z,15.57
2023-04-16T20:39:54.177Z,16.25
2023-04-16T20:42:22.795Z,14.07
2023-04-16T20:44:55.786Z,18.63
2023-04-16T20:47:23.796Z,17.38
2023-04-16T20:49:52.808Z,17.30
2023-04-16T20:52:21.532Z,17.45
2023-04-16T20:54:52.045Z,17.88
2023-04-16T20:57:20.326Z,16.38
2023-04-16T20:59:49.169Z,17.13
2023-04-16T21:02:17.439Z,17.77
2023-04-16T21:04:45.798Z,16.15
2023-04-16T21:07:13.970Z,16.85
2023-04-16T21:09:44.331Z,18.38
2023-04-16T21:12:12.463Z,17.40
2023-04-16T21:14:40.846Z,17.15
2023-04-16T21:17:08.750Z,16.50
2023-04-16T21:19:36.680Z,17.90
2023-04-16T21:22:04.506Z,15.90
2023-04-16T21:24:32.921Z,17.17
2023-04-16T21:27:01.772Z,18.30
2023-04-16T21:29:30.344Z,14.50
2023-04-16T21:31:58.314Z,16.92
2023-04-16T21:34:26.441Z,16.70
2023-04-16T21:36:54.764Z,14.73
2023-04-16T21:39:24.568Z,14.38
2023-04-16T21:41:52.448Z,15.82
2023-04-16T21:44:21.224Z,15.10
2023-04-16T21:46:50.033Z,19.13
2023-04-16T21:49:18.050Z,19.45
2023-04-16T21:51:46.219Z,19.02
2023-04-16T21:54:17.775Z,21.02
2023-04-16T21:56:46.242Z,19.60
2023-04-16T21:59:14.072Z,18.45
2023-04-16T22:01:42.312Z,18.38
2023-04-16T22:04:12.166Z,18.90
2023-04-16T22:06:40.599Z,15.50
2023-04-16T22:09:11.894Z,17.92
2023-04-16T22:11:40.855Z,18.15
2023-04-16T22:14:08.902Z,18.40
2023-04-16T22:16:49.905Z,19.77
2023-04-16T22:19:21.636Z,16.02
2023-04-16T22:21:50.195Z,18.17
2023-04-16T22:24:18.172Z,15.98
2023-04-16T22:26:47.921Z,18.77
2023-04-16T22:29:16.216Z,18.75
2023-04-16T22:31:44.298Z,17.77
2023-04-16T22:34:12.405Z,20.02
2023-04-16T22:36:41.218Z,18.63
2023-04-16T22:39:11.754Z,20.98
2023-04-16T22:41:39.909Z,20.58
2023-04-16T22:44:08.177Z,21.05
2023-04-16T22:46:36.516Z,20.13
2023-04-16T22:49:04.663Z,17.67
2023-04-16T22:51:32.606Z,17.63
2023-04-16T22:54:00.869Z,19.25
2023-04-16T22:56:30.383Z,18.63
2023-04-16T22:58:58.410Z,19.73
2023-04-16T23:01:26.482Z,21.38
2023-04-16T23:03:54.463Z,20.50
2023-04-16T23:06:23.127Z,15.30
2023-04-16T23:08:51.479Z,19.38
2023-04-16T23:11:19.566Z,21.10
2023-04-16T23:13:47.579Z,19.10
2023-04-16T23:16:15.574Z,21.45
2023-04-16T23:18:43.759Z,19.30
2023-04-16T23:21:11.756Z,16.33
2023-04-16T23:23:41.061Z,20.88
2023-04-16T23:26:08.895Z,18.55
2023-04-16T23:28:37.151Z,19.58
2023-04-16T23:31:07.308Z,19.85
2023-04-16T23:33:35.689Z,20.10
2023-04-16T23:36:03.640Z,19.55
2023-04-16T23:38:32.734Z,19.40
2023-04-16T23:41:00.936Z,16.45
2023-04-16T23:43:29.215Z,17.58
2023-04-16T23:45:57.355Z,18.23
2023-04-16T23:48:25.325Z,17.83
2023-04-16T23:50:53.291Z,18.73
2023-04-16T23:53:21.491Z,14.95
2023-04-16T23:55:49.462Z,17.63
2023-04-16T23:58:17.529Z,16.90
